• Join FlightAware (Why Join?)
  • Login
  • US Flag 
09:51PM EDT


 

Airport Tracker/Info


-or-


 

Live Flight TrackerFlight Track Log ✈ N132VU ✈ 02-May-2012 ✈ KMDW - KEYE

Flight Track Log - Related Links

Times and Time Zones

All times are in EDT time to prevent confusion due to time zone crossing. See the N132VU flight status page for this flight to view local times or setup timezone preferences in your user account.

Time Position Orientation Groundspeed Altitude Reporting Facility
EDT Latitude Longitude Course Direction KTS MPH feet Rate Location/Type
11:14PM 41.7794 -87.7500 299° West  Level FlightAware Approximate
11:15PM 41.8000 -87.8000 236° Southwest 99 114 1,600  Level Chicago TRACON
11:16PM 41.7833 -87.8333 217° Southwest 72 83 2,300 600 Climbing Chicago TRACON
11:17PM 41.7667 -87.8500 360° North 61 70 2,900 600 Climbing Chicago TRACON
11:18PM 41.7667 -87.8500 217° Southwest 50 58 3,500 540 Climbing Chicago TRACON
11:19PM 41.7500 -87.8667 180° South 54 62 4,000 180 Climbing Chicago TRACON
11:20PM 41.7333 -87.8667 224° Southwest 78 90 4,000  Level Chicago TRACON
11:21PM 41.7200 -87.8839 212° Southwest 84 97 4,000  Level Chicago Center
11:22PM 41.6992 -87.9011 215° Southwest 84 97 4,000  Level Chicago Center
11:23PM 41.6808 -87.9181 207° Southwest 84 97 4,000  Level Chicago Center
11:24PM 41.6600 -87.9325 212° Southwest 84 97 4,100  Climbing Chicago Center
11:25PM 41.6394 -87.9494 215° Southwest 89 102 4,000 -60 Descending Chicago Center
11:26PM 41.6208 -87.9667 212° Southwest 89 102 4,000  Level Chicago Center
11:27PM 41.6003 -87.9839 209° Southwest 89 102 4,000  Level Chicago Center
11:28PM 41.5775 -88.0008 215° Southwest 89 102 4,000  Level Chicago Center
11:29PM 41.5589 -88.0181 207° Southwest 89 102 4,000  Level Chicago Center
11:30PM 41.5383 -88.0322 214° Southwest 89 102 4,000  Level Chicago Center
11:31PM 41.5197 -88.0492 208° Southwest 89 102 4,000  Level Chicago Center
11:32PM 41.4950 -88.0664 214° Southwest 89 102 4,000  Level Chicago Center
11:33PM 41.4764 -88.0833 214° Southwest 89 102 4,000  Level Chicago Center
11:34PM 41.4578 -88.1003 212° Southwest 89 102 4,000  Level Chicago Center
11:35PM 41.4372 -88.1175 214° Southwest 89 102 4,000 -60 Level Chicago Center
11:36PM 41.4186 -88.1344 214° Southwest 89 102 3,900  Descending Chicago Center
11:37PM 41.4000 -88.1514 211° Southwest 89 102 4,000  Climbing Chicago Center
11:38PM 41.3792 -88.1683 218° Southwest 89 102 4,000  Level Chicago Center
11:39PM 41.3606 -88.1881 213° Southwest 89 102 4,000  Level Chicago Center
11:40PM 41.3442 -88.2022 212° Southwest 89 102 4,000  Level Chicago Center
11:41PM 41.3236 -88.2192 214° Southwest 89 102 4,000  Level Chicago Center
11:42PM 41.3050 -88.2361 211° Southwest 89 102 4,000  Level Chicago Center
11:43PM 41.2842 -88.2531 214° Southwest 89 102 4,000  Level Chicago Center
11:44PM 41.2656 -88.2697 212° Southwest 89 102 4,000  Level Chicago Center
11:45PM 41.2450 -88.2867 214° Southwest 84 97 4,000  Level Chicago Center
11:46PM 41.2264 -88.3036 211° Southwest 84 97 4,000  Level Chicago Center
11:47PM 41.2056 -88.3206 211° Southwest 84 97 4,000  Level Chicago Center
11:48PM 41.1850 -88.3372 211° Southwest 84 97 4,000  Level Chicago Center
11:49PM 41.1642 -88.3542 219° Southwest 89 102 4,000  Level Chicago Center
11:50PM 41.1456 -88.3739 214° Southwest 89 102 4,000  Level Chicago Center
11:51PM 41.1269 -88.3906 212° Southwest 89 102 4,000  Level Chicago Center
11:52PM 41.1064 -88.4075 209° Southwest 89 102 4,000  Level Chicago Center
11:53PM 41.0878 -88.4214 219° Southwest 89 102 4,000  Level Chicago Center
11:54PM 41.0692 -88.4411 207° Southwest 89 102 4,000  Level Chicago Center
11:55PM 41.0483 -88.4550 219° Southwest 89 102 4,000  Level Chicago Center
11:56PM 41.0297 -88.4747 209° Southwest 89 102 4,000  Level Chicago Center
11:57PM 41.0111 -88.4886 212° Southwest 89 102 4,000  Level Chicago Center
11:58PM 40.9903 -88.5056 214° Southwest 89 102 4,100  Climbing Chicago Center
11:59PM 40.9717 -88.5222 207° Southwest 84 97 4,000 -60 Descending Chicago Center
12:00AM 40.9508 -88.5361 214° Southwest 84 97 4,000  Level Chicago Center
12:01AM 40.9322 -88.5528 210° Southwest 84 97 4,000  Level Chicago Center
12:02AM 40.9136 -88.5669 222° Southwest 84 97 4,000  Level Chicago Center
12:03AM 40.8972 -88.5864 215° Southwest 84 97 4,000  Level Chicago Center
12:04AM 40.8764 -88.6058 207° Southwest 84 97 4,000  Level Chicago Center
12:05AM 40.8556 -88.6197 234° Southwest 84 97 4,000  Level Chicago Center
12:06AM 40.8433 -88.6419 232° Southwest 84 97 4,000  Level Chicago Center
12:07AM 40.8289 -88.6667 244° Southwest 84 97 4,000  Level Chicago Center
12:08AM 40.8186 -88.6942 229° Southwest 84 97 4,100  Climbing Chicago Center
12:09AM 40.8042 -88.7164 236° Southwest 84 97 4,000 -60 Descending Chicago Center
12:10AM 40.7917 -88.7411 229° Southwest 84 97 4,000  Level Chicago Center
12:11AM 40.7772 -88.7631 120° Southeast 84 97 4,100  Climbing Chicago Center
12:18AM 40.6830 -88.5175 121° Southeast  Level FlightAware Approximate
12:19AM 40.6699 -88.4834 121° Southeast  Level FlightAware Approximate
12:20AM 40.6567 -88.4493 121° Southeast  Level FlightAware Approximate
12:21AM 40.6435 -88.4152 121° Southeast  Level FlightAware Approximate
12:22AM 40.6303 -88.3811 121° Southeast  Level FlightAware Approximate
12:23AM 40.6171 -88.3471 121° Southeast  Level FlightAware Approximate
12:24AM 40.6039 -88.3130 121° Southeast  Level FlightAware Approximate
12:25AM 40.5907 -88.2790 121° Southeast  Level FlightAware Approximate
12:26AM 40.5775 -88.2449 122° Southeast  Level FlightAware Approximate
12:27AM 40.5642 -88.2109 122° Southeast  Level FlightAware Approximate
12:28AM 40.5510 -88.1769 122° Southeast  Level FlightAware Approximate
12:29AM 40.5377 -88.1430 122° Southeast  Level FlightAware Approximate
12:30AM 40.5243 -88.1086 122° Southeast  Level FlightAware Approximate
12:31AM 40.5109 -88.0744 122° Southeast  Level FlightAware Approximate
12:32AM 40.4976 -88.0402 123° Southeast  Level FlightAware Approximate
12:33AM 40.4841 -88.0060 123° Southeast  Level FlightAware Approximate
12:34AM 40.4707 -87.9718 123° Southeast  Level FlightAware Approximate
12:35AM 40.4573 -87.9376 123° Southeast  Level FlightAware Approximate
12:36AM 40.4439 -87.9034 124° Southeast  Level FlightAware Approximate
12:37AM 40.4305 -87.8693 124° Southeast  Level FlightAware Approximate
12:38AM 40.4170 -87.8351 124° Southeast  Level FlightAware Approximate
12:39AM 40.4035 -87.8010 124° Southeast  Level FlightAware Approximate
12:40AM 40.3901 -87.7669 125° Southeast  Level FlightAware Approximate
12:41AM 40.3766 -87.7328 125° Southeast  Level FlightAware Approximate
12:42AM 40.3631 -87.6987 126° Southeast  Level FlightAware Approximate
12:43AM 40.3496 -87.6647 126° Southeast  Level FlightAware Approximate
12:44AM 40.3361 -87.6306 127° Southeast  Level FlightAware Approximate
12:45AM 40.3226 -87.5966 127° Southeast  Level FlightAware Approximate
12:46AM 40.3090 -87.5625 128° Southeast  Level FlightAware Approximate
12:47AM 40.2955 -87.5285 129° Southeast  Level FlightAware Approximate
12:48AM 40.2820 -87.4945 129° Southeast  Level FlightAware Approximate
12:49AM 40.2684 -87.4605 130° Southeast  Level FlightAware Approximate
12:50AM 40.2548 -87.4266 131° Southeast  Level FlightAware Approximate
12:51AM 40.2412 -87.3926 133° Southeast  Level FlightAware Approximate
12:52AM 40.2276 -87.3587 134° Southeast  Level FlightAware Approximate
12:53AM 40.2141 -87.3247 136° Southeast  Level FlightAware Approximate
12:54AM 40.2004 -87.2908 139° Southeast  Level FlightAware Approximate
12:55AM 40.1868 -87.2569 142° Southeast  Level FlightAware Approximate
12:56AM 40.1732 -87.2230 146° Southeast  Level FlightAware Approximate
12:57AM 40.1595 -87.1891 152° Southeast  Level FlightAware Approximate
12:58AM 40.1459 -87.1553 159° South  Level FlightAware Approximate
12:59AM 40.1322 -87.1214 171° South  Level FlightAware Approximate
01:00AM 40.1186 -87.0876 186° South  Level FlightAware Approximate
01:01AM 40.1049 -87.0538 206° Southwest  Level FlightAware Approximate
01:02AM 40.0912 -87.0200 227° Southwest  Level FlightAware Approximate
01:03AM 40.0775 -86.9862 243° Southwest  Level FlightAware Approximate
01:04AM 40.0638 -86.9524 255° West  Level FlightAware Approximate
01:05AM 40.0501 -86.9186 263° West  Level FlightAware Approximate
01:06AM 40.0363 -86.8849 269° West  Level FlightAware Approximate
01:07AM 40.0226 -86.8511 273° West  Level FlightAware Approximate
01:08AM 40.0089 -86.8174 277° West  Level FlightAware Approximate
01:09AM 39.9951 -86.7837 279° West  Level FlightAware Approximate
01:10AM 39.9813 -86.7500 281° West  Level FlightAware Approximate
01:11AM 39.9675 -86.7163 283° West  Level FlightAware Approximate
01:12AM 39.9538 -86.6826 284° West  Level FlightAware Approximate
01:13AM 39.9399 -86.6490 285° West  Level FlightAware Approximate
01:14AM 39.9261 -86.6153 286° West  Level FlightAware Approximate
01:15AM 39.9123 -86.5817 287° West  Level FlightAware Approximate
01:16AM 39.8985 -86.5481 288° West  Level FlightAware Approximate
01:16AM 40.0333 -87.1000 90° East 145 167 5,100  Level Indianapolis TRACON
01:17AM 40.0333 -87.0667 114° Southeast 135 155 5,200  Climbing Indianapolis TRACON
01:18AM 40.0167 -87.0167 90° East 142 163 5,100 -60 Descending Indianapolis TRACON
01:19AM 40.0167 -86.9667 90° East 146 168 5,100 -60 Level Indianapolis TRACON
01:20AM 40.0167 -86.9167 90° East 144 166 5,000  Descending Indianapolis TRACON
01:21AM 40.0167 -86.8667 72° East 142 163 5,100  Climbing Indianapolis TRACON
01:22AM 40.0333 -86.8000 90° East 142 163 5,100  Level Indianapolis TRACON
01:23AM 40.0333 -86.7500 90° East 142 163 5,100  Level Indianapolis TRACON
01:24AM 40.0333 -86.7000 90° East 141 162 5,100  Level Indianapolis TRACON
01:25AM 40.0333 -86.6500 90° East 140 161 5,100  Level Indianapolis TRACON
01:26AM 40.0333 -86.6000 90° East 142 163 5,100  Level Indianapolis TRACON
01:27AM 40.0333 -86.5500 90° East 137 158 5,100  Level Indianapolis TRACON